Time;durP1;ratioP1;P1;durP2;ratioP2;P2;SDS_P1;SDS_P2;PMS_P1;PMS_P2;Temp;Humidity;BMP_temperature;BMP_pressure;BME280_temperature;BME280_humidity;BME280_pressure;Samples;Min_cycle;Max_cycle;Signal;HPM_P1;HPM_P2
2022/12/28 00:01:07;;;;;;;5.47;2.07;;;5.80;99.90;;;;;;5086233;28;20210;-81
2022/12/28 00:03:34;;;;;;;6.97;1.70;;;5.80;99.90;;;;;;5092329;28;20234;-81
2022/12/28 00:06:01;;;;;;;3.77;1.60;;;5.90;99.90;;;;;;5093411;28;20201;-81
2022/12/28 00:08:28;;;;;;;7.93;2.10;;;5.70;99.90;;;;;;5093791;28;20225;-80
2022/12/28 00:11:00;;;;;;;4.50;1.60;;;5.60;99.90;;;;;;5090776;28;20203;-81
2022/12/28 00:13:27;;;;;;;3.33;1.97;;;5.60;99.90;;;;;;5087447;28;20201;-81
2022/12/28 00:15:56;;;;;;;5.03;2.10;;;5.60;99.90;;;;;;5092351;28;20654;-81
2022/12/28 00:18:22;;;;;;;4.27;1.67;;;5.60;99.90;;;;;;5093711;28;20221;-81
2022/12/28 00:20:57;;;;;;;6.37;2.20;;;5.50;99.90;;;;;;5091648;28;20236;-81
2022/12/28 00:23:23;;;;;;;5.93;2.43;;;5.50;99.90;;;;;;5091066;28;20625;-82
2022/12/28 00:25:50;;;;;;;4.50;1.90;;;5.50;99.90;;;;;;5090554;28;20208;-81
2022/12/28 00:28:17;;;;;;;4.20;1.87;;;5.40;99.90;;;;;;5088290;28;20220;-82
2022/12/28 00:30:44;;;;;;;3.23;1.83;;;5.30;99.90;;;;;;5092862;28;20209;-82
2022/12/28 00:33:12;;;;;;;6.30;2.17;;;5.20;99.90;;;;;;5088035;28;20569;-82
2022/12/28 00:35:39;;;;;;;3.60;2.70;;;5.30;99.90;;;;;;5086889;28;20198;-81
2022/12/28 00:38:06;;;;;;;7.10;2.40;;;5.40;99.90;;;;;;5080392;28;20224;-82
2022/12/28 00:40:33;;;;;;;4.77;2.40;;;5.30;99.90;;;;;;5093313;28;20201;-81
2022/12/28 00:42:59;;;;;;;6.70;2.30;;;5.30;99.90;;;;;;5092830;28;20205;-81
2022/12/28 00:45:26;;;;;;;6.40;2.07;;;5.30;99.90;;;;;;5084454;28;20590;-81
2022/12/28 00:47:53;;;;;;;5.90;2.20;;;5.30;99.90;;;;;;5090577;28;20712;-81
2022/12/28 00:50:21;;;;;;;4.07;2.40;;;5.20;99.90;;;;;;5088173;28;20201;-81
2022/12/28 00:52:48;;;;;;;3.63;2.03;;;5.10;99.90;;;;;;5086849;28;20206;-81
2022/12/28 00:55:15;;;;;;;5.33;2.00;;;5.10;99.90;;;;;;5090535;28;20578;-81
2022/12/28 00:57:41;;;;;;;4.83;1.90;;;5.20;99.90;;;;;;5094415;28;20712;-81
2022/12/28 01:00:09;;;;;;;4.23;1.97;;;5.10;99.90;;;;;;5092475;28;20570;-81
2022/12/28 01:02:36;;;;;;;3.47;2.33;;;5.20;99.90;;;;;;5095541;28;20213;-82
2022/12/28 01:05:03;;;;;;;2.70;1.87;;;5.20;99.90;;;;;;5088426;28;20233;-81
2022/12/28 01:07:31;;;;;;;3.13;1.80;;;5.20;99.90;;;;;;5088414;28;20845;-81
2022/12/28 01:09:58;;;;;;;6.23;2.10;;;5.20;99.90;;;;;;5096229;28;20212;-81
2022/12/28 01:12:25;;;;;;;5.90;2.17;;;5.10;99.90;;;;;;5088192;28;20212;-81
2022/12/28 01:14:51;;;;;;;3.87;1.83;;;5.10;99.90;;;;;;5088293;28;20207;-81
2022/12/28 01:17:18;;;;;;;4.57;1.90;;;5.10;99.90;;;;;;5098769;28;20204;-81
2022/12/28 01:19:45;;;;;;;5.77;1.73;;;5.10;99.90;;;;;;5095521;28;20217;-81
2022/12/28 01:22:13;;;;;;;6.50;1.97;;;5.00;99.90;;;;;;5097735;28;20227;-81
2022/12/28 01:24:41;;;;;;;6.13;1.80;;;5.10;99.90;;;;;;5089846;28;20686;-81
2022/12/28 01:27:08;;;;;;;17.80;1.90;;;5.00;99.90;;;;;;5089464;28;20202;-81
2022/12/28 01:29:34;;;;;;;5.37;2.40;;;4.90;99.90;;;;;;5095800;28;20300;-81
2022/12/28 01:32:01;;;;;;;7.33;2.20;;;4.90;99.90;;;;;;5094123;28;20263;-82
2022/12/28 01:34:28;;;;;;;5.07;2.30;;;5.00;99.90;;;;;;5098015;28;20208;-81
2022/12/28 01:36:55;;;;;;;3.87;1.90;;;4.90;99.90;;;;;;5094210;28;20274;-82
2022/12/28 01:39:21;;;;;;;5.60;2.03;;;4.90;99.90;;;;;;5095622;28;20228;-81
2022/12/28 01:41:50;;;;;;;2.90;1.90;;;4.90;99.90;;;;;;5093313;28;20202;-82
2022/12/28 01:44:41;;;;;;;4.73;1.90;;;5.00;99.90;;;;;;5099141;28;20689;-81
2022/12/28 01:47:12;;;;;;;5.00;1.93;;;4.90;99.90;;;;;;5101120;28;20198;-81
2022/12/28 01:49:42;;;;;;;6.07;2.07;;;5.10;99.90;;;;;;5089216;28;20213;-81
2022/12/28 01:52:13;;;;;;;5.37;2.00;;;5.10;99.90;;;;;;5096374;28;20202;-81
2022/12/28 01:54:46;;;;;;;9.43;2.40;;;5.10;99.90;;;;;;5096029;28;20656;-81
2022/12/28 01:57:15;;;;;;;6.97;1.87;;;5.20;99.90;;;;;;5096521;28;20202;-81
2022/12/28 01:59:46;;;;;;;3.43;2.00;;;5.30;99.90;;;;;;5095729;28;20583;-81
2022/12/28 02:02:14;;;;;;;4.83;2.07;;;5.30;99.90;;;;;;5095587;28;20209;-82
2022/12/28 02:04:41;;;;;;;5.10;2.43;;;5.30;99.90;;;;;;5093116;28;20232;-81
2022/12/28 02:07:09;;;;;;;9.10;2.00;;;5.40;99.90;;;;;;5091429;28;20198;-81
2022/12/28 02:09:39;;;;;;;3.07;1.77;;;5.30;99.90;;;;;;5097344;28;20197;-81
2022/12/28 02:12:08;;;;;;;4.17;1.90;;;5.40;99.90;;;;;;5096269;28;20204;-81
2022/12/28 02:14:37;;;;;;;4.30;2.30;;;5.30;99.90;;;;;;5097431;28;20709;-81
2022/12/28 02:17:03;;;;;;;8.73;2.50;;;5.40;99.90;;;;;;5093557;28;20217;-81
2022/12/28 02:19:37;;;;;;;4.63;2.00;;;5.40;99.90;;;;;;5094939;28;20733;-81
2022/12/28 02:22:26;;;;;;;4.37;2.07;;;5.40;99.90;;;;;;5093876;28;20193;-81
2022/12/28 02:25:09;;;;;;;4.77;2.03;;;5.50;99.90;;;;;;5092053;28;20295;-81
2022/12/28 02:27:49;;;;;;;5.83;2.40;;;5.50;99.90;;;;;;5096505;28;20232;-82
2022/12/28 02:30:18;;;;;;;5.23;2.40;;;5.50;99.90;;;;;;5091897;28;20504;-81
2022/12/28 02:32:54;;;;;;;3.40;2.03;;;5.60;99.90;;;;;;5088118;28;20209;-81
2022/12/28 02:35:29;;;;;;;3.90;2.30;;;5.50;99.90;;;;;;5096986;28;20642;-81
2022/12/28 02:38:01;;;;;;;5.87;2.67;;;5.60;99.90;;;;;;5092555;28;20225;-81
2022/12/28 02:40:32;;;;;;;9.03;2.80;;;5.50;99.90;;;;;;5085270;28;20212;-81
2022/12/28 02:43:02;;;;;;;6.70;2.40;;;5.60;99.90;;;;;;5096427;28;20224;-81
2022/12/28 02:51:22;;;;;;;5.63;2.60;;;5.70;99.90;;;;;;5088717;28;20217;-81
2022/12/28 02:54:04;;;;;;;7.47;2.70;;;5.70;99.90;;;;;;5097005;28;20192;-85
2022/12/28 02:56:37;;;;;;;4.30;2.43;;;5.70;99.90;;;;;;5089119;28;20566;-81
2022/12/28 02:59:41;;;;;;;3.37;2.50;;;5.80;99.90;;;;;;5091564;28;20225;-82
2022/12/28 03:02:30;;;;;;;9.77;2.83;;;5.80;99.90;;;;;;5018760;28;20215;-81
2022/12/28 03:05:10;;;;;;;9.33;3.47;;;5.90;99.90;;;;;;5089870;28;20591;-81
2022/12/28 03:10:34;;;;;;;9.47;3.10;;;5.90;99.90;;;;;;5088203;28;20208;-81
2022/12/28 03:13:05;;;;;;;5.53;2.80;;;5.80;99.90;;;;;;5087151;28;20218;-81
2022/12/28 03:15:36;;;;;;;6.60;3.27;;;5.90;99.90;;;;;;5094275;28;20194;-81
2022/12/28 03:32:02;;;;;;;4.47;3.37;;;6.00;99.90;;;;;;5088315;28;20239;-82
2022/12/28 03:34:31;;;;;;;8.63;3.00;;;6.00;99.90;;;;;;5092062;28;20194;-81
2022/12/28 03:37:09;;;;;;;4.83;2.93;;;6.00;99.90;;;;;;5090506;28;20208;-81
2022/12/28 03:39:41;;;;;;;6.10;3.20;;;6.10;99.90;;;;;;5088193;28;20201;-82
2022/12/28 03:45:06;;;;;;;7.77;3.10;;;6.00;99.90;;;;;;5092166;28;20233;-82
2022/12/28 03:47:35;;;;;;;9.53;4.00;;;6.00;99.90;;;;;;5081354;28;20228;-82
2022/12/28 03:50:04;;;;;;;6.13;2.80;;;6.00;99.90;;;;;;5091133;28;20236;-82
2022/12/28 03:52:32;;;;;;;5.80;2.80;;;6.00;99.90;;;;;;5089368;28;20198;-81
2022/12/28 03:54:59;;;;;;;5.53;2.93;;;5.90;99.90;;;;;;5094035;28;20205;-82
2022/12/28 03:57:26;;;;;;;8.00;3.00;;;6.00;99.90;;;;;;5082362;28;20232;-82
2022/12/28 03:59:53;;;;;;;5.03;3.13;;;5.90;99.90;;;;;;5088560;28;20216;-81
2022/12/28 04:02:19;;;;;;;7.73;3.20;;;5.90;99.90;;;;;;5092807;28;20257;-81
2022/12/28 04:04:46;;;;;;;4.73;3.23;;;6.00;99.90;;;;;;5093333;28;20221;-82
2022/12/28 04:07:14;;;;;;;4.93;3.40;;;6.00;99.90;;;;;;5088100;28;20208;-82
2022/12/28 04:09:41;;;;;;;5.80;3.20;;;6.00;99.90;;;;;;5092973;28;20512;-82
2022/12/28 04:12:08;;;;;;;4.10;3.23;;;6.00;99.90;;;;;;5092072;28;20208;-82
2022/12/28 04:14:34;;;;;;;5.90;3.10;;;6.00;99.90;;;;;;5090917;28;20198;-81
2022/12/28 04:17:01;;;;;;;6.83;3.17;;;6.10;99.90;;;;;;5080376;28;20198;-82
2022/12/28 04:19:28;;;;;;;5.93;4.17;;;6.20;99.90;;;;;;5086634;28;20216;-81
2022/12/28 04:21:55;;;;;;;6.47;3.00;;;6.20;99.90;;;;;;5094849;28;20208;-81
2022/12/28 04:24:23;;;;;;;5.37;3.27;;;6.20;99.90;;;;;;5089747;28;20225;-81
2022/12/28 04:26:50;;;;;;;6.43;3.00;;;6.20;99.90;;;;;;5109066;28;20200;-81
2022/12/28 04:29:16;;;;;;;6.47;3.13;;;6.20;99.90;;;;;;5087810;28;20237;-83
2022/12/28 04:31:43;;;;;;;5.27;2.80;;;6.20;99.90;;;;;;5090772;28;20631;-81
2022/12/28 04:34:10;;;;;;;8.63;3.37;;;6.30;99.90;;;;;;5091004;28;20296;-81
2022/12/28 04:36:38;;;;;;;5.73;3.00;;;6.30;99.90;;;;;;5091114;28;20215;-81
2022/12/28 04:39:05;;;;;;;4.80;2.70;;;6.30;99.90;;;;;;5084145;28;20233;-81
2022/12/28 04:41:33;;;;;;;4.43;2.67;;;6.50;99.90;;;;;;5091313;28;20212;-81
2022/12/28 04:44:00;;;;;;;7.20;2.90;;;6.40;99.90;;;;;;5091523;28;20206;-81
2022/12/28 04:46:27;;;;;;;5.27;2.63;;;6.40;99.90;;;;;;5086547;28;20219;-82
2022/12/28 04:48:53;;;;;;;5.70;2.87;;;6.40;99.90;;;;;;5088798;28;20564;-81
2022/12/28 04:51:22;;;;;;;7.03;2.90;;;6.40;99.90;;;;;;5094000;28;20220;-81
2022/12/28 04:53:50;;;;;;;7.17;3.00;;;6.50;99.90;;;;;;5087082;28;20693;-81
2022/12/28 04:56:18;;;;;;;7.27;3.10;;;6.40;99.90;;;;;;5092197;28;20198;-81
2022/12/28 04:58:46;;;;;;;5.13;3.80;;;6.40;99.90;;;;;;5086772;28;20226;-81
2022/12/28 05:01:15;;;;;;;4.13;2.90;;;6.50;99.90;;;;;;5092079;28;20194;-83
2022/12/28 05:03:44;;;;;;;3.90;2.30;;;6.50;99.90;;;;;;5087724;28;20202;-82
2022/12/28 05:06:12;;;;;;;8.00;2.97;;;6.60;99.90;;;;;;5110830;28;20217;-81
2022/12/28 05:08:39;;;;;;;6.00;3.00;;;6.60;99.90;;;;;;5090029;28;20308;-82
2022/12/28 05:11:08;;;;;;;4.47;2.90;;;6.70;99.90;;;;;;5091384;28;20213;-83
2022/12/28 05:13:35;;;;;;;4.07;2.60;;;6.60;99.90;;;;;;5090135;28;20206;-81
2022/12/28 05:16:05;;;;;;;5.50;2.73;;;6.70;99.90;;;;;;5084507;28;20202;-83
2022/12/28 05:18:32;;;;;;;4.27;2.40;;;6.70;99.90;;;;;;5091796;28;20228;-82
2022/12/28 05:21:00;;;;;;;3.07;2.53;;;6.70;99.90;;;;;;5089212;28;20420;-81
2022/12/28 05:23:28;;;;;;;5.80;3.30;;;6.80;99.90;;;;;;5082975;28;20232;-82
2022/12/28 05:25:55;;;;;;;5.47;2.43;;;6.90;99.90;;;;;;5092661;28;20213;-81
2022/12/28 05:28:22;;;;;;;6.40;2.60;;;6.70;99.90;;;;;;5093514;28;20696;-81
2022/12/28 05:30:49;;;;;;;8.80;2.63;;;6.70;99.90;;;;;;5087203;28;20446;-82
2022/12/28 05:33:17;;;;;;;5.83;2.33;;;6.70;99.90;;;;;;5089134;28;20578;-83
2022/12/28 05:35:44;;;;;;;3.53;2.57;;;6.80;99.90;;;;;;5092705;28;20201;-82
2022/12/28 05:38:11;;;;;;;5.50;2.80;;;6.70;99.90;;;;;;5091869;28;20222;-82
2022/12/28 05:40:37;;;;;;;4.40;2.50;;;6.70;99.90;;;;;;5093115;28;20213;-81
2022/12/28 05:43:04;;;;;;;3.70;2.50;;;6.60;99.90;;;;;;5094953;28;20658;-81
2022/12/28 05:45:31;;;;;;;4.37;2.40;;;6.80;99.90;;;;;;5097504;28;20222;-82
2022/12/28 05:47:58;;;;;;;5.03;2.47;;;6.80;99.90;;;;;;5092036;28;20226;-83
2022/12/28 05:50:26;;;;;;;4.03;2.50;;;6.80;99.90;;;;;;5094541;28;20220;-81
2022/12/28 05:52:52;;;;;;;4.53;2.63;;;6.80;99.90;;;;;;5094700;28;20205;-81
2022/12/28 05:55:19;;;;;;;2.97;2.60;;;6.80;99.90;;;;;;5093943;28;20576;-82
2022/12/28 05:57:46;;;;;;;4.63;2.70;;;6.80;99.90;;;;;;5096683;28;20222;-82
2022/12/28 06:00:14;;;;;;;5.43;2.37;;;6.80;99.90;;;;;;5090357;28;20206;-82
2022/12/28 06:02:41;;;;;;;2.43;1.90;;;6.90;99.90;;;;;;5088231;28;20443;-81
2022/12/28 06:05:08;;;;;;;7.40;2.60;;;7.00;99.90;;;;;;5095293;28;20598;-82
2022/12/28 06:07:36;;;;;;;3.77;2.27;;;6.90;99.90;;;;;;5090737;28;20685;-82
2022/12/28 06:10:04;;;;;;;5.47;2.70;;;7.00;99.90;;;;;;5100878;28;20677;-82
2022/12/28 06:12:31;;;;;;;3.97;2.23;;;7.00;99.90;;;;;;5102284;28;20218;-82
2022/12/28 06:14:57;;;;;;;3.33;2.43;;;7.00;99.90;;;;;;5094555;28;20193;-82
2022/12/28 06:17:24;;;;;;;4.97;2.40;;;7.00;99.90;;;;;;5088887;28;20248;-82
2022/12/28 06:19:51;;;;;;;4.47;2.23;;;7.00;99.90;;;;;;5093390;28;20204;-82
2022/12/28 06:22:18;;;;;;;2.40;2.10;;;7.00;99.90;;;;;;5090867;28;20416;-82
2022/12/28 06:24:46;;;;;;;3.33;2.00;;;7.00;99.90;;;;;;5090479;28;20678;-82
2022/12/28 06:27:13;;;;;;;3.50;2.60;;;7.10;99.90;;;;;;5088570;28;20248;-82
2022/12/28 06:29:39;;;;;;;5.57;2.23;;;7.10;99.90;;;;;;5096628;28;20213;-82
2022/12/28 06:32:06;;;;;;;2.83;1.87;;;7.20;99.90;;;;;;5096615;28;20212;-81
2022/12/28 06:34:33;;;;;;;3.97;2.50;;;7.20;99.90;;;;;;5094966;28;20220;-82
2022/12/28 06:36:59;;;;;;;3.67;1.87;;;7.30;99.90;;;;;;5095632;28;20202;-82
2022/12/28 06:39:26;;;;;;;2.73;2.00;;;7.30;99.90;;;;;;5093531;28;20689;-81
2022/12/28 06:41:54;;;;;;;3.63;1.80;;;7.30;99.90;;;;;;5094767;28;20214;-81
2022/12/28 06:44:21;;;;;;;3.20;1.97;;;7.30;99.90;;;;;;5094112;28;20289;-81
2022/12/28 06:46:48;;;;;;;3.23;2.10;;;7.20;99.90;;;;;;5093844;28;20666;-81
2022/12/28 06:49:15;;;;;;;2.83;2.07;;;7.40;99.90;;;;;;5093138;28;20214;-81
2022/12/28 06:51:41;;;;;;;2.50;2.10;;;7.30;99.90;;;;;;5096162;28;20202;-81
2022/12/28 06:54:08;;;;;;;3.57;2.07;;;7.20;99.90;;;;;;5082049;28;20213;-81
2022/12/28 06:56:36;;;;;;;4.37;2.30;;;7.30;99.90;;;;;;5091585;28;20205;-81
2022/12/28 06:59:05;;;;;;;2.97;1.97;;;7.30;99.90;;;;;;5090480;28;20229;-82
2022/12/28 07:01:34;;;;;;;2.00;1.80;;;7.40;99.90;;;;;;5088427;28;20201;-82
2022/12/28 07:04:02;;;;;;;3.20;2.20;;;7.30;99.90;;;;;;5087228;28;20561;-82
2022/12/28 07:06:30;;;;;;;4.17;2.40;;;7.30;99.90;;;;;;5087970;28;20221;-82
2022/12/28 07:09:00;;;;;;;2.20;2.00;;;7.30;99.90;;;;;;5089572;28;20755;-82
2022/12/28 07:11:28;;;;;;;3.17;2.10;;;7.30;99.90;;;;;;5095847;28;20572;-82
2022/12/28 07:13:55;;;;;;;3.47;2.27;;;7.30;99.90;;;;;;5088715;28;20258;-83
2022/12/28 07:16:25;;;;;;;2.33;1.93;;;7.40;99.90;;;;;;5102670;28;20220;-82
2022/12/28 07:18:52;;;;;;;4.77;2.13;;;7.30;99.90;;;;;;5100034;28;20221;-83
2022/12/28 07:21:21;;;;;;;4.77;2.07;;;7.30;99.90;;;;;;5095516;28;20197;-82
2022/12/28 07:23:48;;;;;;;3.50;2.20;;;7.30;99.90;;;;;;5091225;28;20711;-82
2022/12/28 07:26:16;;;;;;;3.27;2.00;;;7.20;99.90;;;;;;5093764;28;20228;-83
2022/12/28 07:28:45;;;;;;;2.97;2.30;;;7.20;99.90;;;;;;5093982;28;20585;-82
2022/12/28 07:31:15;;;;;;;3.00;2.20;;;7.10;99.90;;;;;;5090540;28;20202;-82
2022/12/28 07:33:44;;;;;;;3.17;2.17;;;7.10;99.90;;;;;;5084728;28;20209;-83
2022/12/28 07:36:12;;;;;;;3.17;2.27;;;7.20;99.90;;;;;;5089410;28;20673;-82
2022/12/28 07:38:39;;;;;;;4.83;2.43;;;7.20;99.90;;;;;;5095055;28;20220;-82
2022/12/28 07:41:08;;;;;;;3.37;2.37;;;7.20;99.90;;;;;;5092296;28;20216;-82
2022/12/28 07:43:35;;;;;;;3.67;2.07;;;7.20;99.90;;;;;;5095112;28;20201;-82
2022/12/28 07:46:02;;;;;;;5.10;2.27;;;7.20;99.90;;;;;;5084129;28;20225;-82
2022/12/28 07:48:30;;;;;;;4.63;2.33;;;7.30;99.90;;;;;;5091914;28;20229;-81
2022/12/28 07:51:06;;;;;;;5.27;2.50;;;7.30;99.90;;;;;;5080297;28;20206;-82
2022/12/28 07:53:33;;;;;;;2.30;2.10;;;7.40;99.90;;;;;;5087705;28;20201;-82
2022/12/28 07:56:00;;;;;;;2.63;2.27;;;7.20;99.90;;;;;;5093551;28;20198;-82
2022/12/28 07:58:27;;;;;;;4.60;2.23;;;7.30;99.90;;;;;;5094789;28;20236;-82
2022/12/28 08:00:54;;;;;;;3.53;2.10;;;7.30;99.90;;;;;;5093488;28;20198;-82
2022/12/28 08:03:21;;;;;;;3.73;2.23;;;7.40;99.90;;;;;;5093833;28;20193;-82
2022/12/28 08:05:47;;;;;;;2.87;2.20;;;7.40;99.90;;;;;;5089293;28;20596;-82
2022/12/28 08:08:15;;;;;;;3.53;2.30;;;7.40;99.90;;;;;;5094996;28;20218;-82
2022/12/28 08:10:42;;;;;;;3.23;2.10;;;7.40;99.90;;;;;;5089033;28;20206;-82
2022/12/28 08:13:09;;;;;;;3.67;2.57;;;7.40;99.90;;;;;;5089028;28;20220;-82
2022/12/28 08:15:36;;;;;;;2.70;2.20;;;7.40;99.90;;;;;;5087198;28;20198;-82
2022/12/28 08:18:02;;;;;;;4.30;2.53;;;7.50;99.90;;;;;;5094580;28;20221;-82
2022/12/28 08:20:30;;;;;;;2.97;2.37;;;7.50;99.90;;;;;;5094406;28;20228;-83
2022/12/28 08:22:57;;;;;;;4.50;2.40;;;7.50;99.90;;;;;;5087399;28;20558;-82
2022/12/28 08:25:25;;;;;;;2.90;2.40;;;7.50;99.90;;;;;;5088635;28;20221;-82
2022/12/28 08:27:52;;;;;;;4.60;2.10;;;7.60;99.90;;;;;;5094168;28;20214;-83
2022/12/28 08:30:19;;;;;;;4.53;2.27;;;7.60;99.90;;;;;;5094276;28;20287;-82
2022/12/28 08:32:46;;;;;;;4.77;2.30;;;7.60;99.90;;;;;;5091335;28;20577;-82
2022/12/28 08:35:12;;;;;;;3.70;2.03;;;7.60;99.90;;;;;;5093071;28;20201;-81
2022/12/28 08:37:39;;;;;;;5.07;2.20;;;7.60;99.90;;;;;;5091773;28;20249;-82
2022/12/28 08:40:07;;;;;;;1.93;1.70;;;7.60;99.90;;;;;;5091606;28;20197;-81
2022/12/28 08:42:35;;;;;;;3.27;1.93;;;7.70;99.90;;;;;;5091825;28;20232;-82
2022/12/28 08:45:02;;;;;;;4.70;2.13;;;7.70;99.90;;;;;;5094454;28;20275;-82
2022/12/28 08:47:29;;;;;;;2.80;2.00;;;7.70;99.90;;;;;;5093972;28;20230;-82
2022/12/28 08:49:55;;;;;;;6.73;1.90;;;7.70;99.90;;;;;;5083963;28;20215;-82
2022/12/28 08:52:23;;;;;;;3.33;1.80;;;7.70;99.90;;;;;;5089411;28;20201;-82
2022/12/28 08:54:50;;;;;;;3.57;2.00;;;7.70;99.90;;;;;;5080910;28;20209;-83
2022/12/28 08:57:17;;;;;;;3.07;2.27;;;7.70;99.90;;;;;;5087830;28;20233;-83
2022/12/28 08:59:45;;;;;;;3.87;2.30;;;7.80;99.90;;;;;;5088694;28;20212;-83
2022/12/28 09:02:13;;;;;;;3.77;2.30;;;7.80;99.90;;;;;;5091771;28;20208;-82
2022/12/28 09:04:40;;;;;;;3.30;2.13;;;7.80;99.90;;;;;;5086934;28;20209;-82
2022/12/28 09:07:07;;;;;;;2.50;1.90;;;7.80;99.90;;;;;;5089729;28;20220;-83
2022/12/28 09:09:34;;;;;;;4.27;2.10;;;7.80;99.90;;;;;;5089880;28;20274;-82
2022/12/28 09:12:01;;;;;;;2.20;2.00;;;7.80;99.90;;;;;;5087090;28;20338;-83
2022/12/28 09:14:28;;;;;;;2.80;2.00;;;7.80;99.90;;;;;;5088698;28;20209;-83
2022/12/28 09:16:56;;;;;;;2.67;2.10;;;7.90;99.90;;;;;;5089995;28;20200;-82
2022/12/28 09:19:23;;;;;;;3.10;1.90;;;7.90;99.90;;;;;;5095315;28;20228;-83
2022/12/28 09:21:51;;;;;;;2.77;1.73;;;7.90;99.90;;;;;;5090942;28;20584;-83
2022/12/28 09:24:18;;;;;;;3.30;2.10;;;7.90;99.90;;;;;;5094515;28;20224;-82
2022/12/28 09:26:45;;;;;;;3.77;2.07;;;7.90;99.90;;;;;;5089844;28;20228;-83
2022/12/28 09:29:13;;;;;;;2.37;2.03;;;7.90;99.90;;;;;;5097283;28;20249;-82
2022/12/28 09:31:40;;;;;;;2.87;1.80;;;8.00;99.90;;;;;;5093766;28;20675;-82
2022/12/28 09:34:11;;;;;;;2.80;1.90;;;8.00;99.90;;;;;;5105064;28;20220;-82
2022/12/28 09:36:40;;;;;;;3.63;2.10;;;8.10;99.90;;;;;;5089986;28;20255;-83
2022/12/28 09:39:11;;;;;;;4.57;2.13;;;8.10;99.90;;;;;;5095375;28;20229;-83
2022/12/28 09:41:44;;;;;;;2.47;1.80;;;8.10;99.90;;;;;;5086669;28;20209;-83
2022/12/28 09:44:30;;;;;;;2.67;2.23;;;8.10;99.90;;;;;;5089511;28;20191;-83
2022/12/28 09:47:01;;;;;;;2.20;2.00;;;8.10;99.90;;;;;;5081381;28;20230;-81
2022/12/28 09:49:38;;;;;;;2.90;1.90;;;8.10;99.90;;;;;;5088547;28;20236;-83
2022/12/28 09:52:22;;;;;;;3.27;2.00;;;8.20;99.90;;;;;;5090573;28;20205;-81
2022/12/28 09:54:49;;;;;;;3.93;2.00;;;8.20;99.90;;;;;;5097242;28;20220;-81
2022/12/28 09:57:18;;;;;;;1.63;1.50;;;8.20;99.90;;;;;;5087199;28;20224;-81
2022/12/28 09:59:46;;;;;;;2.10;1.67;;;8.20;99.90;;;;;;5096437;28;20202;-81
2022/12/28 10:02:19;;;;;;;1.70;1.60;;;8.30;99.90;;;;;;5083053;28;20194;-81
2022/12/28 10:04:50;;;;;;;2.73;1.80;;;8.30;99.90;;;;;;5091722;28;20208;-81
2022/12/28 10:07:17;;;;;;;2.13;1.53;;;8.30;99.90;;;;;;5089799;28;20228;-81
2022/12/28 10:09:44;;;;;;;1.83;1.63;;;8.40;99.90;;;;;;5103723;28;20753;-82
2022/12/28 10:12:15;;;;;;;1.80;1.70;;;8.30;99.90;;;;;;5114970;28;20209;-83
2022/12/28 10:14:44;;;;;;;2.03;1.67;;;8.40;99.90;;;;;;5094366;28;20208;-82
2022/12/28 10:17:13;;;;;;;2.80;1.70;;;8.30;99.90;;;;;;5094633;28;20212;-81
2022/12/28 10:19:40;;;;;;;2.27;1.50;;;8.40;99.90;;;;;;5097131;28;20574;-83
2022/12/28 10:22:13;;;;;;;1.40;1.30;;;8.40;99.90;;;;;;5095890;28;20572;-82
2022/12/28 10:24:41;;;;;;;3.90;1.77;;;8.40;99.90;;;;;;5095610;28;20293;-82
2022/12/28 10:27:12;;;;;;;1.60;1.50;;;8.30;99.90;;;;;;5085423;28;20309;-83
2022/12/28 10:29:41;;;;;;;2.07;1.67;;;8.30;99.90;;;;;;5083522;28;20201;-81
2022/12/28 10:32:11;;;;;;;2.10;1.60;;;8.30;99.90;;;;;;5089267;28;20201;-80
2022/12/28 10:34:53;;;;;;;1.53;1.43;;;8.30;99.90;;;;;;5090379;28;20685;-80
2022/12/28 10:37:21;;;;;;;1.90;1.80;;;8.30;99.90;;;;;;5086998;28;20203;-81
2022/12/28 10:39:51;;;;;;;1.40;1.30;;;8.30;99.90;;;;;;5095248;28;20202;-80
2022/12/28 10:42:25;;;;;;;2.20;1.43;;;8.30;99.90;;;;;;5090715;28;20212;-80
2022/12/28 10:44:54;;;;;;;2.50;1.47;;;8.30;99.90;;;;;;5084839;28;20210;-81
2022/12/28 10:47:30;;;;;;;1.87;1.57;;;8.30;99.90;;;;;;5088654;28;20240;-80
2022/12/28 10:49:57;;;;;;;5.10;1.60;;;8.30;99.90;;;;;;5085073;28;20201;-81
2022/12/28 10:52:26;;;;;;;1.67;1.37;;;8.30;99.90;;;;;;5080005;28;20235;-80
2022/12/28 10:54:53;;;;;;;1.30;1.20;;;8.40;99.90;;;;;;5096200;28;20200;-81
2022/12/28 10:57:27;;;;;;;1.63;1.53;;;8.40;99.90;;;;;;5080344;28;20634;-81
2022/12/28 11:00:14;;;;;;;1.83;1.50;;;8.50;99.90;;;;;;5094375;28;20204;-81
2022/12/28 11:02:42;;;;;;;1.63;1.00;;;8.40;99.90;;;;;;5088727;28;20525;-81
2022/12/28 11:05:20;;;;;;;1.27;0.97;;;8.50;99.90;;;;;;5086450;28;20271;-82
2022/12/28 11:07:48;;;;;;;1.00;0.90;;;8.50;99.90;;;;;;5096390;28;20226;-82
2022/12/28 11:10:26;;;;;;;1.20;1.10;;;8.60;99.90;;;;;;5087774;28;20207;-82
2022/12/28 11:12:55;;;;;;;0.80;0.80;;;8.60;99.90;;;;;;5083276;28;20205;-81
2022/12/28 11:15:25;;;;;;;0.93;0.90;;;8.60;99.90;;;;;;5090350;28;20571;-81
2022/12/28 11:17:55;;;;;;;1.00;1.00;;;8.60;99.90;;;;;;5092801;28;20220;-84
2022/12/28 11:20:26;;;;;;;2.60;1.10;;;8.60;99.90;;;;;;5097389;28;20227;-82
2022/12/28 11:22:54;;;;;;;1.00;1.00;;;8.60;99.90;;;;;;5091052;28;20219;-82
2022/12/28 11:25:30;;;;;;;1.30;0.90;;;8.70;99.90;;;;;;5090477;28;20208;-80
2022/12/28 11:27:57;;;;;;;1.30;1.20;;;8.70;99.90;;;;;;5083226;28;20234;-82
2022/12/28 11:30:24;;;;;;;1.20;1.10;;;8.70;99.90;;;;;;5091999;28;20198;-82
2022/12/28 11:32:53;;;;;;;1.17;1.07;;;8.80;99.90;;;;;;5091304;28;20212;-82
2022/12/28 11:35:23;;;;;;;1.47;1.10;;;8.80;99.90;;;;;;5075612;28;20210;-82
2022/12/28 11:37:51;;;;;;;1.30;1.20;;;8.80;99.90;;;;;;5090135;28;20230;-82
2022/12/28 11:40:47;;;;;;;1.57;0.93;;;9.00;99.90;;;;;;5093072;28;20246;-82
2022/12/28 11:43:38;;;;;;;0.90;0.90;;;8.90;99.90;;;;;;5082298;28;20211;-82
2022/12/28 11:46:06;;;;;;;0.90;0.90;;;8.90;99.90;;;;;;5076374;28;20214;-82
2022/12/28 11:48:47;;;;;;;1.23;1.10;;;9.00;99.90;;;;;;5089945;28;20228;-81
2022/12/28 11:51:17;;;;;;;2.47;1.13;;;9.00;99.90;;;;;;5095347;28;20538;-81
2022/12/28 11:53:57;;;;;;;1.60;1.10;;;9.00;99.90;;;;;;5084280;28;20225;-81
2022/12/28 11:56:26;;;;;;;1.33;0.70;;;9.00;99.90;;;;;;5084682;28;20205;-82
2022/12/28 11:59:06;;;;;;;1.10;1.00;;;9.10;99.90;;;;;;5089042;28;20236;-83
2022/12/28 12:01:50;;;;;;;0.93;0.90;;;9.10;99.90;;;;;;5087714;28;20212;-82
2022/12/28 12:04:36;;;;;;;2.03;1.10;;;9.10;99.90;;;;;;5082409;28;20206;-82
2022/12/28 12:07:45;;;;;;;1.50;1.07;;;9.10;99.90;;;;;;5095711;28;20588;-81
2022/12/28 12:10:29;;;;;;;0.83;0.80;;;9.10;99.90;;;;;;5092149;28;20217;-82
2022/12/28 12:12:58;;;;;;;0.97;0.97;;;9.10;99.90;;;;;;5090616;28;20550;-82
2022/12/28 12:15:41;;;;;;;2.00;1.00;;;9.10;99.90;;;;;;5075253;28;20289;-82
2022/12/28 12:18:17;;;;;;;1.63;1.30;;;9.00;99.90;;;;;;5079011;28;20224;-82
2022/12/28 12:20:51;;;;;;;1.60;1.13;;;8.90;99.90;;;;;;5100913;28;20200;-82
2022/12/28 12:23:26;;;;;;;1.57;1.10;;;8.90;99.90;;;;;;5114139;28;20203;-82
2022/12/28 12:25:54;;;;;;;1.30;1.20;;;8.80;99.90;;;;;;5107251;28;20205;-82
2022/12/28 12:28:32;;;;;;;2.97;1.63;;;8.80;99.90;;;;;;5091695;28;20229;-82
2022/12/28 12:31:01;;;;;;;1.50;1.40;;;8.70;99.90;;;;;;5094255;28;20193;-82
2022/12/28 12:33:33;;;;;;;2.67;1.63;;;8.70;99.90;;;;;;5085873;28;20206;-82
2022/12/28 12:36:14;;;;;;;1.80;1.53;;;8.80;99.90;;;;;;5074652;28;20209;-82
2022/12/28 12:39:02;;;;;;;1.47;1.37;;;8.70;99.90;;;;;;5078879;28;20229;-82
2022/12/28 12:41:34;;;;;;;3.70;1.90;;;8.80;99.90;;;;;;5091362;28;20205;-81
2022/12/28 12:44:17;;;;;;;3.97;1.97;;;8.80;99.90;;;;;;5074883;28;20289;-82
2022/12/28 12:47:29;;;;;;;3.27;1.83;;;8.90;99.90;;;;;;5073165;28;20233;-82
2022/12/28 12:50:20;;;;;;;2.13;1.73;;;9.00;99.90;;;;;;4966326;28;20210;-82
2022/12/28 12:52:54;;;;;;;3.37;1.93;;;9.00;99.90;;;;;;5083271;28;20209;-82
2022/12/28 12:55:39;;;;;;;1.90;1.80;;;9.00;99.90;;;;;;5098363;28;20741;-82
2022/12/28 12:58:15;;;;;;;2.20;1.97;;;9.10;99.90;;;;;;5093350;28;20236;-82
2022/12/28 13:00:50;;;;;;;2.57;1.40;;;9.10;99.90;;;;;;5097350;28;20220;-81
2022/12/28 13:03:27;;;;;;;2.63;2.40;;;9.10;99.90;;;;;;5095594;28;20197;-82
2022/12/28 13:05:56;;;;;;;2.40;1.97;;;9.10;99.90;;;;;;5107395;28;20672;-81
2022/12/28 13:08:26;;;;;;;2.37;1.97;;;9.20;99.90;;;;;;5093516;28;20228;-82
2022/12/28 13:10:54;;;;;;;2.20;1.83;;;9.20;99.90;;;;;;5098147;28;20202;-82
2022/12/28 13:13:28;;;;;;;3.40;2.00;;;9.20;99.90;;;;;;5093048;28;20691;-82
2022/12/28 13:16:01;;;;;;;1.80;1.70;;;9.20;99.90;;;;;;5077577;28;20664;-82
2022/12/28 13:18:28;;;;;;;2.33;1.53;;;9.20;99.90;;;;;;5078450;28;20234;-82
2022/12/28 13:20:56;;;;;;;1.60;1.13;;;9.30;99.90;;;;;;5098243;28;20209;-82
2022/12/28 13:23:24;;;;;;;3.30;1.77;;;9.30;99.90;;;;;;5089208;28;20206;-81
2022/12/28 13:25:54;;;;;;;1.40;1.30;;;9.40;99.90;;;;;;5077993;28;20206;-82
2022/12/28 13:28:23;;;;;;;1.97;1.60;;;9.30;99.90;;;;;;5076337;28;20238;-82
2022/12/28 13:31:09;;;;;;;1.47;1.07;;;9.30;99.90;;;;;;5094891;28;20288;-82
2022/12/28 13:33:36;;;;;;;1.07;1.07;;;9.40;99.90;;;;;;5075988;28;20206;-82
2022/12/28 13:36:19;;;;;;;1.00;1.00;;;9.40;99.90;;;;;;5077414;28;20214;-82
2022/12/28 13:38:46;;;;;;;0.90;0.90;;;9.40;99.90;;;;;;5088297;28;20562;-82